createdAt,value
2018-01-08T00:00:11.439Z,1.00
2018-01-08T00:01:11.460Z,0.70
2018-01-08T00:02:11.446Z,0.70
2018-01-08T00:03:11.443Z,1.20
2018-01-08T00:04:11.433Z,0.90
2018-01-08T00:05:11.433Z,0.80
2018-01-08T00:06:11.430Z,0.90
2018-01-08T00:07:11.435Z,1.00
2018-01-08T00:08:11.425Z,0.90
2018-01-08T00:09:11.433Z,0.90
2018-01-08T00:10:11.423Z,0.90
2018-01-08T00:11:11.429Z,0.90
2018-01-08T00:12:11.419Z,0.90
2018-01-08T00:13:11.413Z,0.70
2018-01-08T00:14:11.408Z,0.90
2018-01-08T00:15:11.412Z,1.00
2018-01-08T00:16:11.413Z,0.90
2018-01-08T00:17:11.395Z,0.90
2018-01-08T00:18:11.402Z,1.00
2018-01-08T00:19:11.392Z,0.90
2018-01-08T00:20:11.391Z,1.30
2018-01-08T00:21:11.396Z,1.10
2018-01-08T00:22:11.390Z,1.00
2018-01-08T00:23:11.382Z,1.00
2018-01-08T00:24:11.381Z,0.90
2018-01-08T00:25:11.387Z,0.60
2018-01-08T00:26:11.376Z,0.90
2018-01-08T00:27:11.387Z,1.10
2018-01-08T00:28:11.373Z,0.90
2018-01-08T00:29:11.371Z,0.90
2018-01-08T00:30:12.027Z,1.00
2018-01-08T00:31:11.358Z,1.00
2018-01-08T00:32:11.375Z,1.10
2018-01-08T00:33:11.355Z,1.10
2018-01-08T00:34:11.364Z,1.00
2018-01-08T00:35:12.041Z,0.90
2018-01-08T00:36:11.346Z,1.10
2018-01-08T00:37:11.366Z,1.00
2018-01-08T00:38:11.336Z,0.90
2018-01-08T00:39:11.341Z,0.70
2018-01-08T00:40:11.337Z,1.00
2018-01-08T00:41:11.342Z,1.00
2018-01-08T00:42:11.335Z,1.00
2018-01-08T00:43:11.345Z,1.10
2018-01-08T00:44:11.340Z,1.00
2018-01-08T00:45:11.335Z,0.90
2018-01-08T00:46:11.322Z,0.90
2018-01-08T00:47:11.321Z,0.90
2018-01-08T00:48:11.323Z,0.90
2018-01-08T00:49:11.304Z,1.20
2018-01-08T00:50:11.317Z,1.10
2018-01-08T00:51:11.317Z,0.90
2018-01-08T00:52:11.306Z,0.80
2018-01-08T00:53:11.316Z,0.90
2018-01-08T00:54:11.303Z,1.00
2018-01-08T00:55:11.323Z,1.00
2018-01-08T00:56:11.366Z,0.90
2018-01-08T00:57:11.293Z,0.90
2018-01-08T00:58:11.297Z,0.90
2018-01-08T00:59:11.291Z,1.00
2018-01-08T01:00:11.288Z,1.20
2018-01-08T01:01:11.298Z,1.10
2018-01-08T01:02:11.282Z,0.90
2018-01-08T01:03:11.281Z,1.10
2018-01-08T01:04:11.298Z,1.00
2018-01-08T01:05:11.278Z,1.10
2018-01-08T01:06:11.271Z,1.00
2018-01-08T01:07:11.275Z,1.00
2018-01-08T01:08:11.283Z,0.90
2018-01-08T01:09:11.274Z,0.90
2018-01-08T01:10:11.273Z,1.20
2018-01-08T01:11:11.279Z,0.90
2018-01-08T01:12:11.267Z,1.00
2018-01-08T01:13:11.253Z,1.00
2018-01-08T01:14:11.252Z,0.90
2018-01-08T01:15:11.240Z,1.00
2018-01-08T01:16:11.247Z,1.00
2018-01-08T01:17:11.237Z,1.00
2018-01-08T01:18:11.236Z,1.00
2018-01-08T01:19:11.247Z,1.00
2018-01-08T01:20:11.251Z,1.00
2018-01-08T01:21:11.236Z,1.10
2018-01-08T01:22:11.232Z,1.00
2018-01-08T01:23:11.232Z,1.10
2018-01-08T01:24:11.228Z,1.20
2018-01-08T01:25:11.220Z,1.20
2018-01-08T01:26:11.220Z,0.90
2018-01-08T01:27:11.221Z,1.30
2018-01-08T01:28:11.218Z,0.90
2018-01-08T01:29:11.224Z,1.30
2018-01-08T01:30:11.220Z,1.10
2018-01-08T01:31:11.212Z,1.00
2018-01-08T01:32:11.246Z,1.00
2018-01-08T01:33:11.211Z,1.20
2018-01-08T01:34:11.196Z,1.00
2018-01-08T01:35:11.201Z,0.90
2018-01-08T01:36:11.212Z,1.00
2018-01-08T01:37:11.198Z,1.30
2018-01-08T01:38:11.189Z,1.00
2018-01-08T01:39:11.186Z,0.90
2018-01-08T01:40:11.199Z,0.90
2018-01-08T01:41:11.195Z,1.30
2018-01-08T01:42:11.179Z,1.10
2018-01-08T01:43:11.178Z,1.10
2018-01-08T01:44:11.240Z,1.00
2018-01-08T01:45:11.170Z,1.40
2018-01-08T01:46:11.183Z,0.90
2018-01-08T01:47:11.175Z,1.00
2018-01-08T01:48:11.162Z,1.00
2018-01-08T01:49:11.168Z,1.20
2018-01-08T01:50:11.163Z,0.90
2018-01-08T01:51:11.177Z,1.00
2018-01-08T01:52:11.157Z,1.10
2018-01-08T01:53:11.148Z,1.10
2018-01-08T01:54:11.152Z,1.40
2018-01-08T01:55:11.145Z,1.00
2018-01-08T01:56:11.162Z,0.90
2018-01-08T01:57:11.149Z,1.00
2018-01-08T01:58:11.132Z,1.20
2018-01-08T01:59:11.140Z,1.10
2018-01-08T02:00:11.129Z,1.10
2018-01-08T02:01:11.134Z,1.00
2018-01-08T02:02:11.139Z,1.10
2018-01-08T02:03:11.136Z,1.00
2018-01-08T02:04:11.133Z,1.00
2018-01-08T02:05:11.129Z,1.00
2018-01-08T02:06:11.122Z,1.10
2018-01-08T02:07:11.152Z,1.00
2018-01-08T02:08:11.113Z,1.30
2018-01-08T02:09:11.119Z,1.20
2018-01-08T02:10:11.107Z,1.10
2018-01-08T02:11:11.130Z,1.00
2018-01-08T02:12:11.099Z,1.10
2018-01-08T02:13:11.108Z,1.10
2018-01-08T02:14:11.109Z,1.10
2018-01-08T02:15:11.096Z,1.30
2018-01-08T02:16:11.090Z,1.30
2018-01-08T02:17:11.099Z,1.10
2018-01-08T02:18:11.088Z,1.10
2018-01-08T02:19:11.088Z,1.20
2018-01-08T02:20:11.089Z,1.30
2018-01-08T02:21:11.074Z,1.10
2018-01-08T02:22:11.083Z,1.10
2018-01-08T02:23:11.073Z,1.30
2018-01-08T02:24:11.083Z,1.00
2018-01-08T02:25:11.067Z,1.20
2018-01-08T02:26:11.064Z,1.20
2018-01-08T02:27:11.112Z,1.20
2018-01-08T02:28:11.065Z,1.10
2018-01-08T02:29:11.059Z,1.20
2018-01-08T02:30:11.055Z,1.10
2018-01-08T02:31:11.054Z,1.10
2018-01-08T02:32:11.055Z,1.40
2018-01-08T02:33:11.044Z,1.20
2018-01-08T02:34:11.049Z,1.30
2018-01-08T02:35:11.049Z,1.30
2018-01-08T02:36:11.055Z,1.10
2018-01-08T02:37:11.039Z,1.10
2018-01-08T02:38:11.040Z,1.20
2018-01-08T02:39:11.044Z,1.30
2018-01-08T02:40:11.025Z,1.10
2018-01-08T02:41:11.038Z,1.00
2018-01-08T02:42:11.029Z,1.30
2018-01-08T02:43:11.023Z,1.20
2018-01-08T02:44:11.021Z,1.10
2018-01-08T02:45:11.010Z,1.20
2018-01-08T02:46:11.002Z,1.30
2018-01-08T02:47:11.033Z,1.30
2018-01-08T02:48:11.003Z,1.10
2018-01-08T02:49:11.009Z,1.40
2018-01-08T02:50:11.010Z,1.30
2018-01-08T02:51:11.020Z,1.40
2018-01-08T02:52:10.999Z,1.40
2018-01-08T02:53:10.994Z,1.40
2018-01-08T02:54:10.988Z,1.20
2018-01-08T02:55:10.993Z,1.50
2018-01-08T02:56:10.983Z,1.30
2018-01-08T02:57:10.989Z,1.20
2018-01-08T02:58:10.993Z,1.30
2018-01-08T02:59:11.015Z,1.30
2018-01-08T03:00:10.974Z,1.20
2018-01-08T03:01:10.989Z,1.50
2018-01-08T03:02:10.968Z,1.50
2018-01-08T03:03:10.970Z,1.20
2018-01-08T03:04:10.975Z,1.40
2018-01-08T03:05:10.974Z,1.10
2018-01-08T03:06:10.963Z,1.00
2018-01-08T03:07:10.952Z,1.40
2018-01-08T03:08:10.960Z,1.40
2018-01-08T03:09:10.954Z,1.10
2018-01-08T03:10:10.949Z,1.40
2018-01-08T03:11:10.951Z,1.40
2018-01-08T03:12:10.945Z,1.20
2018-01-08T03:13:10.939Z,1.20
2018-01-08T03:14:10.940Z,1.40
2018-01-08T03:15:10.933Z,1.40
2018-01-08T03:16:10.943Z,1.30
2018-01-08T03:17:10.939Z,1.30
2018-01-08T03:18:10.929Z,1.50
2018-01-08T03:19:10.941Z,1.30
2018-01-08T03:20:10.928Z,1.30
2018-01-08T03:21:10.925Z,1.40
2018-01-08T03:22:10.931Z,1.10
2018-01-08T03:23:10.915Z,1.40
2018-01-08T03:24:10.928Z,1.20
2018-01-08T03:25:10.916Z,1.10
2018-01-08T03:26:10.901Z,1.50
2018-01-08T03:27:10.909Z,1.40
2018-01-08T03:28:10.905Z,1.40
2018-01-08T03:29:10.906Z,1.50
2018-01-08T03:30:10.901Z,1.40
2018-01-08T03:31:10.896Z,1.40
2018-01-08T03:32:10.915Z,1.40
2018-01-08T03:33:10.894Z,1.40
2018-01-08T03:34:10.888Z,1.40
2018-01-08T03:35:10.883Z,1.60
2018-01-08T03:36:10.884Z,1.50
2018-01-08T03:37:10.884Z,1.30
2018-01-08T03:38:10.880Z,1.40
2018-01-08T03:39:10.870Z,1.30
2018-01-08T03:40:10.871Z,1.40
2018-01-08T03:41:10.866Z,1.20
2018-01-08T03:42:10.866Z,1.30
2018-01-08T03:43:10.872Z,1.40
2018-01-08T03:44:10.876Z,1.40
2018-01-08T03:45:10.854Z,1.50
2018-01-08T03:46:10.854Z,1.40
2018-01-08T03:47:10.861Z,1.50
2018-01-08T03:48:10.859Z,1.40
2018-01-08T03:49:10.846Z,1.60
2018-01-08T03:50:10.855Z,1.50
2018-01-08T03:51:10.850Z,1.40
2018-01-08T03:52:10.841Z,1.60
2018-01-08T03:53:10.839Z,1.40
2018-01-08T03:54:10.844Z,1.50
2018-01-08T03:55:10.837Z,1.50
2018-01-08T03:56:10.839Z,1.20
2018-01-08T03:57:10.820Z,1.40
2018-01-08T03:58:10.826Z,1.50
2018-01-08T03:59:10.824Z,1.50
2018-01-08T04:00:10.830Z,1.50
2018-01-08T04:01:10.815Z,1.40
2018-01-08T04:02:10.810Z,1.30
2018-01-08T04:03:10.811Z,1.40
2018-01-08T04:04:10.819Z,1.40
2018-01-08T04:05:10.815Z,1.60
2018-01-08T04:06:10.800Z,1.50
2018-01-08T04:07:10.821Z,1.40
2018-01-08T04:08:10.811Z,1.70
2018-01-08T04:09:10.802Z,1.60
2018-01-08T04:10:10.801Z,1.60
2018-01-08T04:11:10.790Z,1.50
2018-01-08T04:12:10.791Z,1.00
2018-01-08T04:13:10.785Z,1.20
2018-01-08T04:14:10.790Z,1.50
2018-01-08T04:15:10.789Z,1.50
2018-01-08T04:16:10.781Z,1.50
2018-01-08T04:17:10.780Z,1.60
2018-01-08T04:18:10.771Z,1.40
2018-01-08T04:19:10.771Z,1.70
2018-01-08T04:20:10.770Z,1.50
2018-01-08T04:21:10.762Z,1.60
2018-01-08T04:22:10.767Z,1.40
2018-01-08T04:23:10.760Z,1.50
2018-01-08T04:24:10.752Z,1.50
2018-01-08T04:25:10.763Z,1.50
2018-01-08T04:26:10.747Z,1.50
2018-01-08T04:27:10.760Z,1.60
2018-01-08T04:28:10.757Z,1.60
2018-01-08T04:29:10.748Z,1.50
2018-01-08T04:30:10.747Z,1.60
2018-01-08T04:31:10.755Z,1.80
2018-01-08T04:32:10.742Z,1.50
2018-01-08T04:33:10.730Z,1.50
2018-01-08T04:34:10.745Z,1.50
2018-01-08T04:35:10.733Z,1.60
2018-01-08T04:36:10.742Z,1.50
2018-01-08T04:37:10.730Z,1.60
2018-01-08T04:38:10.721Z,1.60
2018-01-08T04:39:10.721Z,1.50
2018-01-08T04:40:10.721Z,1.50
2018-01-08T04:41:10.707Z,1.70
2018-01-08T04:42:10.715Z,1.70
2018-01-08T04:43:10.708Z,1.70
2018-01-08T04:44:10.725Z,1.70
2018-01-08T04:45:10.696Z,1.90
2018-01-08T04:46:10.706Z,1.40
2018-01-08T04:47:10.699Z,1.60
2018-01-08T04:48:10.695Z,1.60
2018-01-08T04:49:10.693Z,1.50
2018-01-08T04:50:10.692Z,1.80
2018-01-08T04:51:10.681Z,1.50
2018-01-08T04:52:10.683Z,1.60
2018-01-08T04:53:10.694Z,1.50
2018-01-08T04:54:10.685Z,1.90
2018-01-08T04:55:10.687Z,1.40
2018-01-08T04:56:10.673Z,1.60
2018-01-08T04:57:10.676Z,1.70
2018-01-08T04:58:10.671Z,1.40
2018-01-08T04:59:10.660Z,1.70
2018-01-08T05:00:10.660Z,1.60
2018-01-08T05:01:10.668Z,1.70
2018-01-08T05:02:10.661Z,1.60
2018-01-08T05:03:10.658Z,1.70
2018-01-08T05:04:10.655Z,1.70
2018-01-08T05:05:10.651Z,1.70
2018-01-08T05:06:10.638Z,1.70
2018-01-08T05:07:10.654Z,1.70
2018-01-08T05:08:10.653Z,1.70
2018-01-08T05:09:10.657Z,1.80
2018-01-08T05:10:10.632Z,1.60
2018-01-08T05:11:10.638Z,1.70
2018-01-08T05:12:10.636Z,1.80
2018-01-08T05:13:10.635Z,1.80
2018-01-08T05:14:10.632Z,1.70
2018-01-08T05:15:10.629Z,1.70
2018-01-08T05:16:10.621Z,1.60
2018-01-08T05:17:10.621Z,1.90
2018-01-08T05:18:10.612Z,1.70
2018-01-08T05:19:10.607Z,1.90
2018-01-08T05:20:10.611Z,1.80
2018-01-08T05:21:10.615Z,1.70
2018-01-08T05:22:10.606Z,1.80
2018-01-08T05:23:10.602Z,1.80
2018-01-08T05:24:10.611Z,1.80
2018-01-08T05:25:10.597Z,1.80
2018-01-08T05:26:10.605Z,1.60
2018-01-08T05:27:10.596Z,1.70
2018-01-08T05:28:10.596Z,1.80
2018-01-08T05:29:10.597Z,2.00
2018-01-08T05:30:10.588Z,1.90
2018-01-08T05:31:10.578Z,1.90
2018-01-08T05:32:10.581Z,1.80
2018-01-08T05:33:10.582Z,1.90
2018-01-08T05:34:10.578Z,1.60
2018-01-08T05:35:10.574Z,1.80
2018-01-08T05:36:10.572Z,1.70
2018-01-08T05:37:10.566Z,1.60
2018-01-08T05:38:10.571Z,1.90
2018-01-08T05:39:10.571Z,1.80
2018-01-08T05:40:10.581Z,1.90
2018-01-08T05:41:10.558Z,1.60
2018-01-08T05:42:10.554Z,1.80
2018-01-08T05:43:10.554Z,1.80
2018-01-08T05:44:10.552Z,1.60
2018-01-08T05:45:10.552Z,1.80
2018-01-08T05:46:10.546Z,1.90
2018-01-08T05:47:10.551Z,1.70
2018-01-08T05:48:10.537Z,1.90
2018-01-08T05:49:10.532Z,1.80
2018-01-08T05:50:10.543Z,1.80
2018-01-08T05:51:10.529Z,1.80
2018-01-08T05:52:10.519Z,1.90
2018-01-08T05:53:10.525Z,1.70
2018-01-08T05:54:10.524Z,1.80
2018-01-08T05:55:10.524Z,1.70
2018-01-08T05:56:10.509Z,1.80
2018-01-08T05:57:10.511Z,1.70
2018-01-08T05:58:10.514Z,1.80
2018-01-08T05:59:10.509Z,2.00
2018-01-08T06:00:10.506Z,1.70
2018-01-08T06:01:10.506Z,2.00
2018-01-08T06:02:10.504Z,1.90
2018-01-08T06:03:10.512Z,2.00
2018-01-08T06:04:10.496Z,1.80
2018-01-08T06:05:10.498Z,1.80
2018-01-08T06:06:10.502Z,2.10
2018-01-08T06:07:10.494Z,1.90
2018-01-08T06:08:10.476Z,1.70
2018-01-08T06:09:10.477Z,2.00
2018-01-08T06:10:10.474Z,1.70
2018-01-08T06:11:10.473Z,2.00
2018-01-08T06:12:10.488Z,1.80
2018-01-08T06:13:10.468Z,1.80
2018-01-08T06:14:10.467Z,1.90
2018-01-08T06:15:10.472Z,2.20
2018-01-08T06:16:10.463Z,1.80
2018-01-08T06:17:10.463Z,2.00
2018-01-08T06:18:10.464Z,1.80
2018-01-08T06:19:10.468Z,1.80
2018-01-08T06:20:10.447Z,1.90
2018-01-08T06:21:10.453Z,1.90
2018-01-08T06:22:10.449Z,1.90
2018-01-08T06:23:10.448Z,1.80
2018-01-08T06:24:10.436Z,1.60
2018-01-08T06:25:10.438Z,1.80
2018-01-08T06:26:10.444Z,1.90
2018-01-08T06:27:10.442Z,2.00
2018-01-08T06:28:10.443Z,1.70
2018-01-08T06:29:10.453Z,1.90
2018-01-08T06:30:10.437Z,2.00
2018-01-08T06:31:10.419Z,1.90
2018-01-08T06:32:10.440Z,2.00
2018-01-08T06:33:10.422Z,1.80
2018-01-08T06:34:10.416Z,2.00
2018-01-08T06:35:10.412Z,2.00
2018-01-08T06:36:10.428Z,1.80
2018-01-08T06:37:10.423Z,2.00
2018-01-08T06:38:10.408Z,2.30
2018-01-08T06:39:10.413Z,2.40
2018-01-08T06:40:10.400Z,2.10
2018-01-08T06:41:10.398Z,1.90
2018-01-08T06:42:10.399Z,2.00
2018-01-08T06:43:10.395Z,1.90
2018-01-08T06:44:10.385Z,2.20
2018-01-08T06:45:10.399Z,2.00
2018-01-08T06:46:10.390Z,2.30
2018-01-08T06:47:10.390Z,2.00
2018-01-08T06:48:10.383Z,1.90
2018-01-08T06:49:10.398Z,1.90
2018-01-08T06:50:10.379Z,2.10
2018-01-08T06:51:10.377Z,2.00
2018-01-08T06:52:10.372Z,2.00
2018-01-08T06:53:10.375Z,2.20
2018-01-08T06:54:10.368Z,2.20
2018-01-08T06:55:10.378Z,1.90
2018-01-08T06:56:10.378Z,2.00
2018-01-08T06:57:10.359Z,1.90
2018-01-08T06:58:10.356Z,1.90
2018-01-08T06:59:10.363Z,2.30
2018-01-08T07:00:10.368Z,1.80
2018-01-08T07:01:10.347Z,2.20
2018-01-08T07:02:10.350Z,2.20
2018-01-08T07:03:10.351Z,2.30
2018-01-08T07:04:10.350Z,2.20
2018-01-08T07:05:10.334Z,2.10
2018-01-08T07:06:10.350Z,2.20
2018-01-08T07:07:10.329Z,2.40
2018-01-08T07:08:10.330Z,2.10
2018-01-08T07:09:10.340Z,2.40
2018-01-08T07:10:10.329Z,2.20
2018-01-08T07:11:10.327Z,2.20
2018-01-08T07:12:10.322Z,2.40
2018-01-08T07:13:10.320Z,2.40
2018-01-08T07:14:10.321Z,2.30
2018-01-08T07:15:10.313Z,2.30
2018-01-08T07:16:10.304Z,2.00
2018-01-08T07:17:10.309Z,2.10
2018-01-08T07:18:10.309Z,2.00
2018-01-08T07:19:10.305Z,2.00
2018-01-08T07:20:10.310Z,2.30
2018-01-08T07:21:10.326Z,2.30
2018-01-08T07:22:10.290Z,2.50
2018-01-08T07:23:10.294Z,2.50
2018-01-08T07:24:10.292Z,2.10
2018-01-08T07:25:10.284Z,2.10
2018-01-08T07:26:10.295Z,2.20
2018-01-08T07:27:10.283Z,2.30
2018-01-08T07:28:10.280Z,2.10
2018-01-08T07:29:10.276Z,2.40
2018-01-08T07:30:10.278Z,2.20
2018-01-08T07:31:10.266Z,2.20
2018-01-08T07:32:10.269Z,2.30
2018-01-08T07:33:10.268Z,2.50
2018-01-08T07:34:10.260Z,2.40
2018-01-08T07:35:10.264Z,2.30
2018-01-08T07:36:10.251Z,2.40
2018-01-08T07:37:10.254Z,2.30
2018-01-08T07:38:10.248Z,2.20
2018-01-08T07:39:10.257Z,2.60
2018-01-08T07:40:10.244Z,2.40
2018-01-08T07:41:10.239Z,2.00
2018-01-08T07:42:10.242Z,2.50
2018-01-08T07:43:10.257Z,2.60
2018-01-08T07:44:10.244Z,2.20
2018-01-08T07:45:10.235Z,2.50
2018-01-08T07:46:10.233Z,2.40
2018-01-08T07:47:10.230Z,2.50
2018-01-08T07:48:10.220Z,2.50
2018-01-08T07:49:10.224Z,2.60
2018-01-08T07:50:10.224Z,2.60
2018-01-08T07:51:10.220Z,2.60
2018-01-08T07:52:10.220Z,2.50
2018-01-08T07:53:10.226Z,2.50
2018-01-08T07:54:10.210Z,2.60
2018-01-08T07:55:10.206Z,2.50
2018-01-08T07:56:10.196Z,2.70
2018-01-08T07:57:10.200Z,2.50
2018-01-08T07:58:10.204Z,2.80
2018-01-08T07:59:10.201Z,2.60
2018-01-08T08:00:10.202Z,2.70
2018-01-08T08:01:10.194Z,2.60
2018-01-08T08:02:10.189Z,2.80
2018-01-08T08:03:10.176Z,2.50
2018-01-08T08:04:10.195Z,2.80
2018-01-08T08:05:10.180Z,2.70
2018-01-08T08:06:10.185Z,2.40
2018-01-08T08:07:10.169Z,2.70
2018-01-08T08:08:10.179Z,2.60
2018-01-08T08:09:10.169Z,2.80
2018-01-08T08:10:10.167Z,2.80
2018-01-08T08:11:10.161Z,2.80
2018-01-08T08:12:10.162Z,2.60
2018-01-08T08:13:10.180Z,2.70
2018-01-08T08:14:10.154Z,2.70
2018-01-08T08:15:10.157Z,2.70
2018-01-08T08:16:10.154Z,2.70
2018-01-08T08:17:10.165Z,2.70
2018-01-08T08:18:10.136Z,2.60
2018-01-08T08:19:10.149Z,2.60
2018-01-08T08:20:10.155Z,2.70
2018-01-08T08:21:10.141Z,2.50
2018-01-08T08:22:10.142Z,2.70
2018-01-08T08:23:10.135Z,2.80
2018-01-08T08:24:10.133Z,2.60
2018-01-08T08:25:10.125Z,2.70
2018-01-08T08:26:10.160Z,2.90
2018-01-08T08:27:10.131Z,2.70
2018-01-08T08:28:10.118Z,2.70
2018-01-08T08:29:10.118Z,2.70
2018-01-08T08:30:10.114Z,2.60
2018-01-08T08:31:10.130Z,2.60
2018-01-08T08:32:10.113Z,2.80
2018-01-08T08:33:10.110Z,2.90
2018-01-08T08:34:10.104Z,2.60
2018-01-08T08:35:10.097Z,2.80
2018-01-08T08:36:10.106Z,2.70
2018-01-08T08:37:10.106Z,2.70
2018-01-08T08:38:10.086Z,2.80
2018-01-08T08:39:10.104Z,2.90
2018-01-08T08:40:10.095Z,2.90
2018-01-08T08:41:10.088Z,2.50
2018-01-08T08:42:10.090Z,2.90
2018-01-08T08:43:10.082Z,2.90
2018-01-08T08:44:10.080Z,2.80
2018-01-08T08:45:10.080Z,2.80
2018-01-08T08:46:10.086Z,3.00
2018-01-08T08:47:10.067Z,3.00
2018-01-08T08:48:10.070Z,3.00
2018-01-08T08:49:10.071Z,2.90
2018-01-08T08:50:10.070Z,2.80
2018-01-08T08:52:10.121Z,3.00
2018-01-08T08:53:10.061Z,3.10
2018-01-08T08:54:10.048Z,2.90
2018-01-08T08:55:10.074Z,3.00
2018-01-08T08:56:10.046Z,3.00
2018-01-08T08:57:10.056Z,3.00
2018-01-08T08:58:31.054Z,2.80
2018-01-08T08:59:10.040Z,2.80
2018-01-08T09:00:10.037Z,3.20
2018-01-08T09:01:10.030Z,2.80
2018-01-08T09:02:10.061Z,3.10
2018-01-08T09:03:10.040Z,3.10
2018-01-08T09:04:31.052Z,2.70
2018-01-08T09:05:10.044Z,2.80
2018-01-08T09:06:10.046Z,3.20
2018-01-08T09:07:10.041Z,3.00
2018-01-08T09:08:10.020Z,3.00
2018-01-08T09:09:10.788Z,2.90
2018-01-08T09:10:31.032Z,2.90
2018-01-08T09:11:10.011Z,2.70
2018-01-08T09:12:10.008Z,2.80
2018-01-08T09:13:10.007Z,2.90
2018-01-08T09:14:10.006Z,2.70
2018-01-08T09:15:10.001Z,3.10
2018-01-08T09:16:31.002Z,2.80
2018-01-08T09:17:09.986Z,2.90
2018-01-08T09:18:09.995Z,3.00
2018-01-08T09:19:09.983Z,2.90
2018-01-08T09:20:09.996Z,3.10
2018-01-08T09:21:09.976Z,3.00
2018-01-08T09:22:30.993Z,2.80
2018-01-08T09:23:09.975Z,2.90
2018-01-08T09:24:09.977Z,2.90
2018-01-08T09:25:09.981Z,3.30
2018-01-08T09:26:09.973Z,3.10
2018-01-08T09:27:09.971Z,3.40
2018-01-08T09:28:30.983Z,3.20
2018-01-08T09:29:09.962Z,3.00
2018-01-08T09:30:09.988Z,3.10
2018-01-08T09:31:09.961Z,3.10
2018-01-08T09:32:09.983Z,3.20
2018-01-08T09:33:09.958Z,3.10
2018-01-08T09:34:30.961Z,2.90
2018-01-08T09:35:09.948Z,3.10
2018-01-08T09:36:09.938Z,3.20
2018-01-08T09:37:09.943Z,3.10
2018-01-08T09:38:09.936Z,3.00
2018-01-08T09:39:09.989Z,3.20
2018-01-08T09:40:30.957Z,2.80
2018-01-08T09:41:09.938Z,3.00
2018-01-08T09:42:09.924Z,3.20
2018-01-08T09:43:09.927Z,2.80
2018-01-08T09:44:09.931Z,3.00
2018-01-08T09:45:09.929Z,3.10
2018-01-08T09:46:30.931Z,3.40
2018-01-08T09:47:09.918Z,3.00
2018-01-08T09:48:09.914Z,3.50
2018-01-08T09:49:09.905Z,3.20
2018-01-08T09:50:09.901Z,3.20
2018-01-08T09:51:09.913Z,3.00
2018-01-08T09:52:30.907Z,3.00
2018-01-08T09:53:09.905Z,3.10
2018-01-08T09:54:09.904Z,2.90
2018-01-08T09:55:09.896Z,3.30
2018-01-08T09:56:09.903Z,3.10
2018-01-08T09:57:09.904Z,2.90
2018-01-08T09:58:30.924Z,3.20
2018-01-08T09:59:09.889Z,3.30
2018-01-08T10:00:09.883Z,3.20
2018-01-08T10:01:09.893Z,3.10
2018-01-08T10:02:09.888Z,3.30
2018-01-08T10:03:09.888Z,3.10
2018-01-08T10:04:30.885Z,3.00
2018-01-08T10:05:09.876Z,2.90
2018-01-08T10:06:09.871Z,3.10
2018-01-08T10:07:09.862Z,3.20
2018-01-08T10:08:09.856Z,3.40
2018-01-08T10:09:09.863Z,3.20
2018-01-08T10:10:30.858Z,3.50
2018-01-08T10:11:09.863Z,3.20
2018-01-08T10:12:09.855Z,3.40
2018-01-08T10:13:09.859Z,3.10
2018-01-08T10:14:09.907Z,3.40
2018-01-08T10:15:09.848Z,3.50
2018-01-08T10:16:30.849Z,3.30
2018-01-08T10:17:09.840Z,3.10
2018-01-08T10:18:09.839Z,3.30
2018-01-08T10:19:09.899Z,3.30
2018-01-08T10:20:09.827Z,3.20
2018-01-08T10:21:09.827Z,3.30
2018-01-08T10:22:30.835Z,3.30
2018-01-08T10:23:09.822Z,3.00
2018-01-08T10:24:09.822Z,3.40
2018-01-08T10:25:09.808Z,3.10
2018-01-08T10:26:09.834Z,3.30
2018-01-08T10:27:09.814Z,3.50
2018-01-08T10:28:30.819Z,3.40
2018-01-08T10:29:09.804Z,3.40
2018-01-08T10:30:09.794Z,3.10
2018-01-08T10:31:09.803Z,3.30
2018-01-08T10:32:09.799Z,3.30
2018-01-08T10:33:09.799Z,3.10
2018-01-08T10:34:30.806Z,3.30
2018-01-08T10:35:09.795Z,3.10
2018-01-08T10:36:09.788Z,3.30
2018-01-08T10:37:09.783Z,3.40
2018-01-08T10:38:09.780Z,3.00
2018-01-08T10:39:09.778Z,3.30
2018-01-08T10:40:30.787Z,3.80
2018-01-08T10:41:09.765Z,3.50
2018-01-08T10:42:09.773Z,3.40
2018-01-08T10:43:09.768Z,3.20
2018-01-08T10:44:09.767Z,3.60
2018-01-08T10:45:09.764Z,3.40
2018-01-08T10:46:30.763Z,3.60
2018-01-08T10:47:09.778Z,3.50
2018-01-08T10:48:09.755Z,3.50
2018-01-08T10:49:09.760Z,3.30
2018-01-08T10:50:09.767Z,3.50
2018-01-08T10:51:09.743Z,3.60
2018-01-08T10:52:30.752Z,3.50
2018-01-08T10:53:09.743Z,3.60
2018-01-08T10:54:09.749Z,3.20
2018-01-08T10:55:09.738Z,3.20
2018-01-08T10:56:09.730Z,3.70
2018-01-08T10:57:09.726Z,3.40
2018-01-08T10:58:30.748Z,3.70
2018-01-08T10:59:09.727Z,3.30
2018-01-08T11:00:09.718Z,3.10
2018-01-08T11:01:09.727Z,3.60
2018-01-08T11:02:09.729Z,3.60
2018-01-08T11:03:09.718Z,3.60
2018-01-08T11:04:30.714Z,3.60
2018-01-08T11:05:09.713Z,3.40
2018-01-08T11:06:09.723Z,3.50
2018-01-08T11:07:09.703Z,3.70
2018-01-08T11:08:09.698Z,3.50
2018-01-08T11:09:09.695Z,3.60
2018-01-08T11:10:30.714Z,3.40
2018-01-08T11:11:09.694Z,3.50
2018-01-08T11:12:09.699Z,3.50
2018-01-08T11:13:09.688Z,3.50
2018-01-08T11:14:09.688Z,3.40
2018-01-08T11:15:09.693Z,3.60
2018-01-08T11:16:30.694Z,3.20
2018-01-08T11:17:09.684Z,3.60
2018-01-08T11:18:09.684Z,3.80
2018-01-08T11:19:09.676Z,3.20
2018-01-08T11:20:09.674Z,3.60
2018-01-08T11:21:09.675Z,3.70
2018-01-08T11:22:30.692Z,3.70
2018-01-08T11:23:09.661Z,3.50
2018-01-08T11:24:09.668Z,3.50
2018-01-08T11:25:09.656Z,3.60
2018-01-08T11:26:09.656Z,3.60
2018-01-08T11:27:09.661Z,3.60
2018-01-08T11:28:30.670Z,3.50
2018-01-08T11:29:09.660Z,3.70
2018-01-08T11:30:09.661Z,3.80
2018-01-08T11:31:09.635Z,3.50
2018-01-08T11:32:09.647Z,3.50
2018-01-08T11:33:09.661Z,3.60
2018-01-08T11:34:30.645Z,3.60
2018-01-08T11:35:09.655Z,3.80
2018-01-08T11:36:09.634Z,3.80
2018-01-08T11:37:09.633Z,3.60
2018-01-08T11:38:09.625Z,3.60
2018-01-08T11:39:09.622Z,3.70
2018-01-08T11:40:30.629Z,3.60
2018-01-08T11:41:09.616Z,3.60
2018-01-08T11:42:09.618Z,3.60
2018-01-08T11:43:09.610Z,3.80
2018-01-08T11:44:09.619Z,3.40
2018-01-08T11:45:09.606Z,3.50
2018-01-08T11:46:30.606Z,3.80
2018-01-08T11:47:09.601Z,3.60
2018-01-08T11:48:09.604Z,3.70
2018-01-08T11:49:09.604Z,3.70
2018-01-08T11:50:09.595Z,3.60
2018-01-08T11:51:09.607Z,3.70
2018-01-08T11:52:30.594Z,3.90
2018-01-08T11:53:09.592Z,3.70
2018-01-08T11:54:09.591Z,3.70
2018-01-08T11:55:09.580Z,3.90
2018-01-08T11:56:09.579Z,3.60
2018-01-08T11:57:09.578Z,3.40
2018-01-08T11:58:30.580Z,3.60
2018-01-08T11:59:09.563Z,3.70
2018-01-08T12:00:09.573Z,3.80
2018-01-08T12:01:09.567Z,3.80
2018-01-08T12:02:09.571Z,3.70
2018-01-08T12:03:09.566Z,3.70
2018-01-08T12:04:30.567Z,4.20
2018-01-08T12:05:09.550Z,4.20
2018-01-08T12:06:09.557Z,3.80
2018-01-08T12:07:09.557Z,3.90
2018-01-08T12:08:09.556Z,4.00
2018-01-08T12:09:09.549Z,3.90
2018-01-08T12:10:30.550Z,3.80
2018-01-08T12:11:09.533Z,4.30
2018-01-08T12:12:09.538Z,3.90
2018-01-08T12:13:09.522Z,4.10
2018-01-08T12:14:09.545Z,4.00
2018-01-08T12:15:09.529Z,4.20
2018-01-08T12:16:30.538Z,4.10
2018-01-08T12:17:09.522Z,4.20
2018-01-08T12:18:09.529Z,4.00
2018-01-08T12:19:09.515Z,3.90
2018-01-08T12:20:09.512Z,3.80
2018-01-08T12:21:09.519Z,4.10
2018-01-08T12:22:30.521Z,4.00
2018-01-08T12:23:09.558Z,4.20
2018-01-08T12:24:09.505Z,3.70
2018-01-08T12:25:09.502Z,4.10
2018-01-08T12:26:09.510Z,4.20
2018-01-08T12:27:09.515Z,4.40
2018-01-08T12:28:30.500Z,4.40
2018-01-08T12:29:09.514Z,4.20
2018-01-08T12:30:09.490Z,4.30
2018-01-08T12:31:09.490Z,4.50
2018-01-08T12:32:09.485Z,4.20
2018-01-08T12:33:09.477Z,4.00
2018-01-08T12:34:30.481Z,4.20
2018-01-08T12:35:09.479Z,3.90
2018-01-08T12:36:09.508Z,4.30
2018-01-08T12:37:09.472Z,4.10
2018-01-08T12:38:09.470Z,4.30
2018-01-08T12:39:09.465Z,3.90
2018-01-08T12:40:30.466Z,4.40
2018-01-08T12:41:09.456Z,4.30
2018-01-08T12:42:09.455Z,4.50
2018-01-08T12:43:09.458Z,4.40
2018-01-08T12:44:09.454Z,4.70
2018-01-08T12:45:09.451Z,4.30
2018-01-08T12:46:30.458Z,4.20
2018-01-08T12:47:09.440Z,4.00
2018-01-08T12:48:09.442Z,4.30
2018-01-08T12:49:09.432Z,4.40
2018-01-08T12:50:09.442Z,4.40
2018-01-08T12:51:09.435Z,4.50
2018-01-08T12:52:30.445Z,4.30
2018-01-08T12:53:09.430Z,4.50
2018-01-08T12:54:09.431Z,4.40
2018-01-08T12:55:09.439Z,4.40
2018-01-08T12:56:09.427Z,4.30
2018-01-08T12:57:09.428Z,4.00
2018-01-08T12:58:30.420Z,4.00
2018-01-08T12:59:09.420Z,4.30
2018-01-08T13:00:09.412Z,4.30
2018-01-08T13:01:09.403Z,4.40
2018-01-08T13:02:09.405Z,4.30
2018-01-08T13:03:09.391Z,4.30
2018-01-08T13:04:30.410Z,4.40
2018-01-08T13:05:09.395Z,4.50
2018-01-08T13:06:09.391Z,4.30
2018-01-08T13:07:09.385Z,4.20
2018-01-08T13:08:09.401Z,4.20
2018-01-08T13:09:09.383Z,4.30
2018-01-08T13:10:30.390Z,4.20
2018-01-08T13:11:09.382Z,4.40
2018-01-08T13:12:09.398Z,4.10
2018-01-08T13:13:09.370Z,4.40
2018-01-08T13:14:09.373Z,4.40
2018-01-08T13:15:09.371Z,4.60
2018-01-08T13:16:30.372Z,4.60
2018-01-08T13:17:09.391Z,4.60
2018-01-08T13:18:09.362Z,4.10
2018-01-08T13:19:09.359Z,4.10